Time;durP1;ratioP1;P1;durP2;ratioP2;P2;SDS_P1;SDS_P2;PMS_P1;PMS_P2;Temp;Humidity;BMP_temperature;BMP_pressure;BME280_temperature;BME280_humidity;BME280_pressure;Samples;Min_cycle;Max_cycle;Signal;HPM_P1;HPM_P2
2022/04/24 00:00:47;;;;;;;0.40;0.40;;;20.10;69.30;;;;;;4035471;29;20119;-61
2022/04/24 00:02:49;;;;;;;0.50;0.50;;;20.10;69.20;;;;;;4015908;29;20840;-61
2022/04/24 00:04:52;;;;;;;0.47;0.47;;;20.10;69.20;;;;;;4027872;29;20731;-61
2022/04/24 00:06:54;;;;;;;0.75;0.60;;;20.10;69.10;;;;;;4004931;29;20944;-61
2022/04/24 00:08:56;;;;;;;0.85;0.50;;;20.10;69.10;;;;;;4031048;29;22122;-62
2022/04/24 00:10:58;;;;;;;1.17;0.60;;;20.10;69.10;;;;;;4014437;29;20067;-60
2022/04/24 00:13:00;;;;;;;0.60;0.50;;;20.10;69.20;;;;;;4038053;29;20617;-63
2022/04/24 00:15:02;;;;;;;1.35;0.57;;;20.10;69.20;;;;;;4034787;29;20538;-60
2022/04/24 00:17:05;;;;;;;0.73;0.52;;;20.20;69.20;;;;;;4029443;29;20174;-61
2022/04/24 00:19:07;;;;;;;0.60;0.40;;;20.20;69.20;;;;;;4020758;29;20583;-61
2022/04/24 00:21:10;;;;;;;0.60;0.60;;;20.20;69.20;;;;;;4038752;29;20658;-60
2022/04/24 00:23:12;;;;;;;0.75;0.50;;;20.20;69.20;;;;;;4034800;29;20151;-61
2022/04/24 00:25:14;;;;;;;0.50;0.50;;;20.20;69.20;;;;;;4018677;29;20499;-62
2022/04/24 00:27:16;;;;;;;0.70;0.50;;;20.10;69.10;;;;;;4041887;29;20060;-61
2022/04/24 00:29:18;;;;;;;0.65;0.60;;;20.20;69.20;;;;;;4036177;29;20076;-61
2022/04/24 00:31:20;;;;;;;1.02;0.50;;;20.20;69.20;;;;;;4036079;29;20079;-62
2022/04/24 00:33:23;;;;;;;0.57;0.40;;;20.20;69.20;;;;;;4044122;29;21403;-61
2022/04/24 00:35:25;;;;;;;0.35;0.35;;;20.20;69.20;;;;;;4037012;29;22235;-61
2022/04/24 00:37:28;;;;;;;0.30;0.25;;;20.20;69.10;;;;;;4020690;29;20047;-62
2022/04/24 00:39:30;;;;;;;0.30;0.30;;;20.30;69.20;;;;;;4028933;29;20063;-62
2022/04/24 00:41:33;;;;;;;0.50;0.50;;;20.30;69.10;;;;;;4033385;29;20744;-60
2022/04/24 00:43:35;;;;;;;0.60;0.40;;;20.20;69.00;;;;;;4021538;29;20107;-62
2022/04/24 00:45:37;;;;;;;0.65;0.60;;;20.20;69.20;;;;;;4026804;29;20048;-63
2022/04/24 00:47:41;;;;;;;0.70;0.60;;;20.20;69.20;;;;;;4019930;29;20060;-61
2022/04/24 00:49:45;;;;;;;0.30;0.30;;;20.30;69.10;;;;;;4031968;29;20111;-61
2022/04/24 00:51:48;;;;;;;0.38;0.38;;;20.30;69.20;;;;;;4057654;29;20040;-61
2022/04/24 00:53:50;;;;;;;0.90;0.52;;;20.30;69.90;;;;;;4059846;29;20055;-61
2022/04/24 00:55:53;;;;;;;0.57;0.57;;;20.30;69.10;;;;;;4047747;29;20103;-61
2022/04/24 00:57:55;;;;;;;0.50;0.45;;;20.30;69.10;;;;;;4049279;29;20048;-62
2022/04/24 00:59:57;;;;;;;0.73;0.30;;;20.30;69.20;;;;;;4061569;29;20495;-62
2022/04/24 01:02:02;;;;;;;0.57;0.50;;;20.30;69.20;;;;;;4046937;29;20067;-60
2022/04/24 01:07:19;;;;;;;0.82;0.43;;;20.30;69.20;;;;;;4027912;29;20472;-62
2022/04/24 01:09:24;;;;;;;1.05;0.50;;;20.30;69.20;;;;;;4043747;29;20512;-63
2022/04/24 01:11:26;;;;;;;0.77;0.50;;;20.30;69.20;;;;;;4033261;29;20075;-62
2022/04/24 01:13:28;;;;;;;0.40;0.40;;;20.30;69.20;;;;;;4018688;29;20056;-59
2022/04/24 01:15:31;;;;;;;0.60;0.45;;;20.30;69.20;;;;;;4015261;29;20144;-60
2022/04/24 01:17:34;;;;;;;0.95;0.45;;;20.30;69.20;;;;;;4033904;29;20877;-60
2022/04/24 01:19:36;;;;;;;1.57;0.40;;;20.30;69.20;;;;;;4022674;29;20130;-60
2022/04/24 01:21:42;;;;;;;0.77;0.52;;;20.30;69.20;;;;;;4036767;29;20070;-60
2022/04/24 01:23:44;;;;;;;0.50;0.47;;;20.40;69.30;;;;;;4024507;29;20063;-62
2022/04/24 01:25:46;;;;;;;0.98;0.60;;;20.40;69.20;;;;;;4037939;29;20056;-60
2022/04/24 01:27:49;;;;;;;1.33;0.68;;;20.40;69.20;;;;;;4022115;29;20144;-61
2022/04/24 01:29:51;;;;;;;0.90;0.47;;;20.40;69.30;;;;;;4021173;29;20699;-62
2022/04/24 01:31:53;;;;;;;1.63;0.60;;;20.40;69.10;;;;;;4018634;29;20417;-61
2022/04/24 01:33:55;;;;;;;1.10;0.70;;;20.50;69.20;;;;;;4038615;29;20365;-62
2022/04/24 01:35:58;;;;;;;0.70;0.60;;;20.40;69.10;;;;;;4023163;29;20055;-61
2022/04/24 01:38:00;;;;;;;1.25;0.70;;;20.40;69.40;;;;;;4030649;29;21813;-61
2022/04/24 01:40:02;;;;;;;1.27;0.70;;;20.40;69.00;;;;;;4030761;29;20110;-61
2022/04/24 01:42:05;;;;;;;1.30;0.73;;;20.50;69.10;;;;;;4015967;29;20179;-63
2022/04/24 01:44:07;;;;;;;2.60;1.27;;;20.50;69.10;;;;;;4020901;29;20717;-60
2022/04/24 01:46:10;;;;;;;2.55;1.00;;;20.50;69.10;;;;;;4014396;29;20520;-61
2022/04/24 01:48:12;;;;;;;2.40;0.73;;;20.50;69.10;;;;;;4017435;29;20150;-61
2022/04/24 01:50:14;;;;;;;1.80;0.65;;;20.50;69.10;;;;;;4038236;29;20056;-61
2022/04/24 01:52:16;;;;;;;1.58;0.70;;;20.50;69.00;;;;;;4032381;29;20486;-62
2022/04/24 01:54:18;;;;;;;1.77;0.85;;;20.50;69.10;;;;;;4015504;29;20560;-61
2022/04/24 01:56:20;;;;;;;1.63;0.88;;;20.60;69.10;;;;;;4040015;29;20063;-61
2022/04/24 01:58:22;;;;;;;1.88;0.88;;;20.60;69.00;;;;;;3993481;29;21619;-61
2022/04/24 02:00:24;;;;;;;1.95;0.77;;;20.60;69.00;;;;;;4024581;29;20126;-61
2022/04/24 02:02:26;;;;;;;2.47;1.20;;;20.60;69.00;;;;;;4029435;29;20055;-61
2022/04/24 02:04:29;;;;;;;2.33;1.25;;;20.60;69.10;;;;;;4012430;29;20078;-59
2022/04/24 02:06:31;;;;;;;3.28;1.23;;;20.60;69.20;;;;;;4011391;29;20086;-62
2022/04/24 02:08:37;;;;;;;4.72;1.73;;;20.60;69.30;;;;;;4014865;29;20060;-61
2022/04/24 02:10:39;;;;;;;3.25;1.48;;;20.60;69.40;;;;;;4017723;29;20052;-61
2022/04/24 02:12:42;;;;;;;3.53;1.20;;;20.70;69.40;;;;;;4023489;29;22235;-61
2022/04/24 02:14:44;;;;;;;5.97;2.00;;;20.70;69.30;;;;;;4006480;29;20056;-61
2022/04/24 02:16:46;;;;;;;2.58;1.35;;;20.70;69.50;;;;;;4017502;29;20074;-62
2022/04/24 02:18:49;;;;;;;3.45;1.70;;;20.70;69.40;;;;;;4009678;29;22127;-61
2022/04/24 02:20:51;;;;;;;4.45;2.03;;;20.70;69.30;;;;;;4021367;29;20878;-61
2022/04/24 02:22:55;;;;;;;6.35;2.35;;;20.70;69.50;;;;;;4011268;29;20500;-61
2022/04/24 02:24:57;;;;;;;3.63;2.08;;;20.70;69.50;;;;;;4034433;29;20177;-62
2022/04/24 02:26:59;;;;;;;6.28;2.30;;;20.80;69.50;;;;;;4010266;29;20170;-61
2022/04/24 02:29:01;;;;;;;4.03;1.90;;;20.80;69.50;;;;;;4024162;29;20055;-61
2022/04/24 02:31:04;;;;;;;5.50;2.15;;;20.80;69.50;;;;;;4031672;29;20059;-60
2022/04/24 02:33:06;;;;;;;4.17;1.93;;;20.80;69.50;;;;;;4010671;29;20979;-61
2022/04/24 02:35:08;;;;;;;4.03;1.98;;;20.80;69.50;;;;;;4025547;29;20493;-62
2022/04/24 02:37:10;;;;;;;5.22;2.13;;;20.80;69.50;;;;;;4027900;29;20550;-62
2022/04/24 02:39:12;;;;;;;6.82;2.58;;;20.90;69.50;;;;;;4011114;29;20863;-60
2022/04/24 02:41:14;;;;;;;10.10;2.60;;;20.90;69.60;;;;;;4021499;29;20130;-60
2022/04/24 02:43:16;;;;;;;6.60;2.30;;;20.90;69.60;;;;;;4020473;29;20283;-61
2022/04/24 02:45:20;;;;;;;3.63;1.83;;;20.90;69.60;;;;;;4025174;29;20096;-61
2022/04/24 02:47:21;;;;;;;;;;;20.90;69.60;;;;;;4018366;29;20087;-61
2022/04/24 02:49:23;;;;;;;4.43;2.35;;;21.00;69.50;;;;;;4017811;29;19938;-60
2022/04/24 02:51:25;;;;;;;4.75;2.20;;;20.90;69.50;;;;;;4026524;29;20158;-61
2022/04/24 02:53:28;;;;;;;4.25;2.00;;;21.00;69.50;;;;;;4003572;29;20055;-60
2022/04/24 02:55:30;;;;;;;4.28;1.73;;;21.00;69.60;;;;;;4001873;29;20062;-60
2022/04/24 02:57:33;;;;;;;5.28;2.40;;;21.00;69.60;;;;;;4023425;29;20113;-60
2022/04/24 02:59:35;;;;;;;2.95;1.70;;;21.00;69.60;;;;;;3992191;29;20117;-59
2022/04/24 03:01:38;;;;;;;4.47;1.70;;;21.00;69.50;;;;;;4000580;29;20532;-60
2022/04/24 03:03:42;;;;;;;4.20;1.83;;;21.00;69.40;;;;;;4005316;29;20066;-60
2022/04/24 03:05:45;;;;;;;2.78;1.70;;;21.00;69.30;;;;;;4013451;29;20075;-60
2022/04/24 03:07:47;;;;;;;2.20;1.35;;;21.10;69.40;;;;;;4028887;29;20055;-59
2022/04/24 03:09:49;;;;;;;2.35;1.33;;;21.10;69.90;;;;;;4006505;29;20063;-59
2022/04/24 03:11:51;;;;;;;2.90;1.40;;;21.10;69.30;;;;;;4008904;29;20147;-60
2022/04/24 03:13:53;;;;;;;3.47;1.50;;;21.10;69.30;;;;;;4015280;29;20094;-59
2022/04/24 03:15:55;;;;;;;2.95;1.52;;;21.20;69.10;;;;;;4004067;29;20052;-61
2022/04/24 03:17:58;;;;;;;2.65;1.27;;;21.20;69.00;;;;;;4007395;29;20142;-60
2022/04/24 03:20:01;;;;;;;3.78;1.60;;;21.20;69.00;;;;;;4015146;29;20063;-61
2022/04/24 03:22:03;;;;;;;2.47;1.30;;;21.20;68.80;;;;;;4022117;29;20181;-61
2022/04/24 03:24:05;;;;;;;2.07;0.97;;;21.30;68.80;;;;;;4022131;29;20059;-60
2022/04/24 03:26:08;;;;;;;1.40;1.10;;;21.30;68.70;;;;;;4028851;29;20160;-60
2022/04/24 03:28:10;;;;;;;2.80;1.33;;;21.30;68.70;;;;;;4008058;29;20747;-61
2022/04/24 03:30:12;;;;;;;1.58;1.10;;;21.30;68.50;;;;;;4004460;29;20130;-60
2022/04/24 03:32:15;;;;;;;1.63;1.10;;;21.40;68.50;;;;;;4006086;29;20059;-61
2022/04/24 03:34:17;;;;;;;2.60;1.20;;;21.40;68.40;;;;;;4029219;29;20139;-60
2022/04/24 03:36:19;;;;;;;2.38;1.35;;;21.50;68.30;;;;;;4005323;29;20804;-60
2022/04/24 03:38:22;;;;;;;1.37;0.90;;;21.50;68.20;;;;;;4021408;29;20226;-61
2022/04/24 03:40:24;;;;;;;3.17;1.30;;;21.50;68.10;;;;;;4031180;29;20931;-60
2022/04/24 03:42:26;;;;;;;1.70;0.95;;;21.50;68.00;;;;;;4004729;29;20171;-60
2022/04/24 03:44:28;;;;;;;2.30;0.93;;;21.60;68.00;;;;;;4002448;29;20961;-60
2022/04/24 03:46:31;;;;;;;1.77;1.00;;;21.60;68.00;;;;;;4008088;29;21520;-60
2022/04/24 03:48:34;;;;;;;2.00;1.20;;;21.70;67.90;;;;;;4003510;29;20067;-61
2022/04/24 03:50:36;;;;;;;1.52;0.80;;;21.70;67.80;;;;;;4018893;29;20047;-60
2022/04/24 03:52:38;;;;;;;2.13;1.10;;;21.70;67.80;;;;;;4021017;29;20126;-60
2022/04/24 03:54:40;;;;;;;1.73;1.23;;;21.70;67.80;;;;;;4029877;29;20059;-60
2022/04/24 03:56:42;;;;;;;1.65;0.90;;;21.70;67.70;;;;;;3999967;29;20098;-60
2022/04/24 03:58:44;;;;;;;2.17;1.10;;;21.70;67.70;;;;;;4004253;29;20051;-60
2022/04/24 04:00:47;;;;;;;2.10;1.23;;;21.80;67.60;;;;;;4012030;29;21409;-60
2022/04/24 04:02:49;;;;;;;1.63;1.02;;;21.80;67.40;;;;;;4004818;29;21041;-60
2022/04/24 04:04:52;;;;;;;1.38;0.93;;;21.80;67.40;;;;;;4005466;29;20173;-60
2022/04/24 04:06:54;;;;;;;1.50;1.00;;;21.90;67.40;;;;;;4010942;29;20052;-61
2022/04/24 04:08:56;;;;;;;1.02;0.68;;;21.90;67.40;;;;;;4027782;29;22261;-60
2022/04/24 04:10:59;;;;;;;2.25;1.05;;;21.90;67.40;;;;;;4003901;29;20896;-60
2022/04/24 04:13:08;;;;;;;1.02;0.65;;;21.90;67.30;;;;;;4007214;29;20051;-60
2022/04/24 04:15:10;;;;;;;1.10;0.77;;;22.00;67.20;;;;;;4009174;29;20056;-60
2022/04/24 04:17:12;;;;;;;1.83;1.17;;;22.00;67.10;;;;;;4009347;29;20124;-60
2022/04/24 04:19:15;;;;;;;0.88;0.85;;;22.10;67.00;;;;;;3986932;29;21046;-61
2022/04/24 04:21:17;;;;;;;1.38;0.80;;;22.20;66.80;;;;;;4017589;29;20060;-61
2022/04/24 04:23:19;;;;;;;1.35;0.68;;;22.20;66.70;;;;;;4011568;29;20476;-59
2022/04/24 04:25:24;;;;;;;0.88;0.57;;;22.30;66.60;;;;;;4004078;29;20060;-60
2022/04/24 04:27:26;;;;;;;1.27;0.82;;;22.40;66.50;;;;;;4004481;29;20056;-60
2022/04/24 04:29:28;;;;;;;1.85;0.80;;;22.40;66.20;;;;;;4026037;29;20056;-61
2022/04/24 04:31:30;;;;;;;1.08;0.90;;;22.50;66.10;;;;;;4027010;29;20052;-60
2022/04/24 04:33:32;;;;;;;1.85;0.70;;;22.60;65.90;;;;;;4005965;29;20594;-58
2022/04/24 04:35:34;;;;;;;1.42;0.70;;;22.70;65.70;;;;;;4026334;29;20056;-60
2022/04/24 04:37:37;;;;;;;0.68;0.63;;;22.70;65.70;;;;;;4030427;29;20063;-60
2022/04/24 04:39:39;;;;;;;0.52;0.52;;;22.80;65.50;;;;;;4006530;29;20123;-60
2022/04/24 04:41:41;;;;;;;1.08;0.50;;;22.90;65.50;;;;;;4025385;29;20487;-61
2022/04/24 04:43:43;;;;;;;1.25;0.88;;;22.90;65.20;;;;;;4018575;29;20083;-60
2022/04/24 04:45:47;;;;;;;0.40;0.40;;;23.00;65.10;;;;;;4025807;29;22061;-61
2022/04/24 04:47:49;;;;;;;0.82;0.57;;;23.10;65.00;;;;;;4008750;29;20109;-60
2022/04/24 04:49:51;;;;;;;1.70;0.60;;;23.20;64.80;;;;;;4033744;29;20085;-61
2022/04/24 04:51:53;;;;;;;1.08;0.65;;;23.30;64.70;;;;;;4015579;29;20063;-61
2022/04/24 04:53:55;;;;;;;0.95;0.70;;;23.30;64.60;;;;;;4030718;29;20151;-61
2022/04/24 04:55:58;;;;;;;1.38;0.90;;;23.40;64.30;;;;;;4033811;29;20488;-61
2022/04/24 04:58:00;;;;;;;1.80;0.75;;;23.40;64.10;;;;;;4028389;29;20606;-59
2022/04/24 05:00:05;;;;;;;0.85;0.60;;;23.50;64.00;;;;;;4025158;29;20484;-60
2022/04/24 05:02:07;;;;;;;2.13;0.70;;;23.60;63.90;;;;;;4036325;29;20140;-60
2022/04/24 05:04:09;;;;;;;1.35;0.80;;;23.60;63.80;;;;;;4043926;29;20111;-61
2022/04/24 05:06:11;;;;;;;0.40;0.40;;;23.70;63.60;;;;;;4047730;29;20052;-61
2022/04/24 05:08:13;;;;;;;0.88;0.60;;;23.80;63.50;;;;;;4039011;29;20531;-60
2022/04/24 05:10:15;;;;;;;1.17;0.80;;;23.70;63.60;;;;;;4032453;29;20065;-61
2022/04/24 05:12:18;;;;;;;2.10;1.02;;;23.60;63.70;;;;;;4027508;29;20142;-61
2022/04/24 05:14:20;;;;;;;2.45;1.13;;;23.60;63.80;;;;;;4039073;29;20055;-61
2022/04/24 05:16:24;;;;;;;1.20;0.80;;;23.70;64.30;;;;;;4038304;29;20059;-61
2022/04/24 05:18:28;;;;;;;0.82;0.63;;;23.70;63.60;;;;;;4080398;29;20079;-61
2022/04/24 05:20:30;;;;;;;1.77;0.80;;;23.70;63.60;;;;;;4081965;29;20052;-60
2022/04/24 05:26:28;;;;;;;1.42;1.02;;;23.60;63.80;;;;;;4068689;29;20098;-60
2022/04/24 05:28:50;;;;;;;2.33;1.02;;;23.70;64.00;;;;;;4068169;28;20103;-60
2022/04/24 05:31:08;;;;;;;2.10;1.17;;;23.70;64.00;;;;;;4055785;29;20138;-60
2022/04/24 05:36:12;;;;;;;2.17;1.20;;;23.70;64.10;;;;;;4045720;29;20063;-61
2022/04/24 05:38:14;;;;;;;2.92;1.23;;;23.70;64.10;;;;;;4015154;29;20056;-60
2022/04/24 05:40:17;;;;;;;3.08;1.40;;;23.70;64.10;;;;;;4023943;29;20765;-60
2022/04/24 05:42:19;;;;;;;1.73;1.15;;;23.70;64.00;;;;;;4005203;29;20100;-61
2022/04/24 05:44:21;;;;;;;2.97;1.35;;;23.80;64.00;;;;;;4014406;29;20953;-61
2022/04/24 05:46:23;;;;;;;1.60;1.00;;;23.70;63.90;;;;;;4006038;29;21146;-61
2022/04/24 05:48:25;;;;;;;1.45;0.90;;;23.70;64.00;;;;;;4023035;29;20040;-61
2022/04/24 05:50:27;;;;;;;2.47;1.10;;;23.60;64.30;;;;;;4011220;29;20750;-61
2022/04/24 05:52:29;;;;;;;1.35;0.93;;;23.60;64.30;;;;;;4027102;29;20106;-61
2022/04/24 05:54:31;;;;;;;2.65;1.23;;;23.60;64.20;;;;;;4004559;29;20740;-61
2022/04/24 05:56:33;;;;;;;2.78;1.33;;;23.60;64.20;;;;;;4005806;29;20083;-63
2022/04/24 05:58:35;;;;;;;1.73;0.90;;;23.60;64.20;;;;;;4030028;29;20059;-61
2022/04/24 06:00:38;;;;;;;1.92;0.82;;;23.70;64.10;;;;;;4023031;29;20110;-60
2022/04/24 06:02:41;;;;;;;1.58;0.95;;;23.70;64.00;;;;;;4006859;29;20155;-61
2022/04/24 06:04:43;;;;;;;1.77;1.02;;;23.70;64.00;;;;;;4034084;29;21009;-60
2022/04/24 06:06:45;;;;;;;1.50;1.00;;;23.70;63.90;;;;;;4008225;29;22479;-61
2022/04/24 06:08:47;;;;;;;1.27;0.88;;;23.70;63.80;;;;;;4024646;29;20126;-61
2022/04/24 06:10:49;;;;;;;1.58;0.80;;;23.70;63.80;;;;;;4012420;29;20064;-61
2022/04/24 06:12:53;;;;;;;1.80;0.90;;;23.70;63.80;;;;;;4012927;29;22029;-61
2022/04/24 06:15:02;;;;;;;0.90;0.77;;;23.70;64.40;;;;;;4005725;29;20510;-61
2022/04/24 06:17:04;;;;;;;1.58;0.82;;;23.70;63.90;;;;;;4007006;29;20119;-60
2022/04/24 06:19:06;;;;;;;2.38;0.80;;;23.70;63.90;;;;;;4028688;29;20056;-62
2022/04/24 06:21:08;;;;;;;1.67;1.10;;;23.70;63.90;;;;;;4031111;29;20067;-61
2022/04/24 06:23:11;;;;;;;2.53;0.63;;;23.70;64.00;;;;;;4006620;29;21343;-60
2022/04/24 06:25:17;;;;;;;1.50;1.00;;;23.60;64.00;;;;;;4020251;29;20143;-61
2022/04/24 06:27:19;;;;;;;2.53;1.00;;;23.60;64.10;;;;;;3997408;29;20506;-61
2022/04/24 06:29:21;;;;;;;1.10;0.70;;;23.60;64.00;;;;;;4010928;29;20064;-61
2022/04/24 06:31:24;;;;;;;1.17;0.70;;;23.60;64.00;;;;;;4021639;29;20413;-61
2022/04/24 06:33:26;;;;;;;1.85;0.80;;;23.60;64.00;;;;;;4026551;29;20111;-61
2022/04/24 06:35:28;;;;;;;2.65;1.23;;;23.60;64.10;;;;;;4029037;29;20065;-60
2022/04/24 06:37:30;;;;;;;0.90;0.70;;;23.60;64.10;;;;;;4020964;29;20107;-61
2022/04/24 06:39:32;;;;;;;2.90;1.00;;;23.60;64.10;;;;;;4021540;29;20115;-61
2022/04/24 06:41:35;;;;;;;1.35;0.88;;;23.60;64.00;;;;;;4014599;29;20127;-61
2022/04/24 06:43:37;;;;;;;1.40;1.00;;;23.60;64.00;;;;;;4004816;29;21924;-60
2022/04/24 06:45:41;;;;;;;1.85;0.95;;;23.70;64.00;;;;;;4003415;29;20075;-61
2022/04/24 06:47:45;;;;;;;1.48;0.60;;;23.60;64.00;;;;;;4027795;29;20055;-61
2022/04/24 06:49:47;;;;;;;1.70;0.68;;;23.70;64.00;;;;;;4014777;29;20147;-61
2022/04/24 06:51:49;;;;;;;0.95;0.65;;;23.70;64.10;;;;;;4020856;29;20527;-59
2022/04/24 06:53:51;;;;;;;1.40;1.30;;;23.80;63.80;;;;;;4004880;29;20070;-60
2022/04/24 06:55:54;;;;;;;1.10;0.93;;;23.80;63.60;;;;;;4029214;29;20142;-60
2022/04/24 06:57:57;;;;;;;1.17;1.00;;;24.00;63.20;;;;;;4003221;29;20060;-59
2022/04/24 07:00:00;;;;;;;2.03;0.77;;;24.10;62.80;;;;;;4023511;29;20063;-60
2022/04/24 07:02:02;;;;;;;1.73;0.77;;;24.00;62.70;;;;;;4026900;29;20815;-60
2022/04/24 07:04:04;;;;;;;0.73;0.47;;;23.90;63.00;;;;;;4029340;29;20064;-60
2022/04/24 07:06:07;;;;;;;0.50;0.40;;;23.80;63.20;;;;;;4021879;29;20086;-61
2022/04/24 07:08:09;;;;;;;0.95;0.63;;;23.70;63.60;;;;;;4025403;29;20163;-61
2022/04/24 07:10:11;;;;;;;0.85;0.60;;;23.60;63.80;;;;;;4033171;29;20083;-61
2022/04/24 07:12:14;;;;;;;0.80;0.60;;;23.60;64.10;;;;;;4022741;29;20270;-61
2022/04/24 07:14:16;;;;;;;1.90;0.80;;;23.50;64.20;;;;;;4008600;29;20059;-61
2022/04/24 07:16:18;;;;;;;1.80;0.88;;;23.50;64.30;;;;;;4016061;29;20217;-61
2022/04/24 07:18:21;;;;;;;1.33;0.70;;;23.40;64.60;;;;;;4025412;29;21061;-60
2022/04/24 07:20:23;;;;;;;1.90;0.80;;;23.40;64.60;;;;;;4024196;29;20320;-61
2022/04/24 07:22:25;;;;;;;1.80;0.70;;;23.30;64.70;;;;;;4028810;29;20386;-62
2022/04/24 07:24:27;;;;;;;2.00;1.00;;;23.30;64.80;;;;;;4011619;29;21423;-61
2022/04/24 07:26:30;;;;;;;2.30;0.93;;;23.30;64.90;;;;;;4004449;29;20040;-61
2022/04/24 07:28:32;;;;;;;3.33;1.10;;;23.20;65.00;;;;;;4025057;29;20903;-61
2022/04/24 07:30:35;;;;;;;2.17;1.13;;;23.20;65.00;;;;;;4015186;29;20071;-61
2022/04/24 07:32:47;;;;;;;1.50;0.90;;;23.20;65.00;;;;;;4004689;29;20179;-60
2022/04/24 07:34:49;;;;;;;2.22;0.88;;;23.20;65.00;;;;;;4009437;29;20864;-61
2022/04/24 07:36:51;;;;;;;2.22;1.08;;;23.20;65.10;;;;;;4027509;29;20056;-61
2022/04/24 07:38:53;;;;;;;1.75;0.98;;;23.20;65.00;;;;;;4035535;29;20516;-61
2022/04/24 07:40:55;;;;;;;2.20;1.05;;;23.20;65.10;;;;;;4015236;29;20060;-61
2022/04/24 07:42:59;;;;;;;1.67;1.00;;;23.20;65.10;;;;;;4018039;29;20287;-60
2022/04/24 07:45:01;;;;;;;1.85;0.80;;;23.20;65.20;;;;;;4023510;29;20083;-61
2022/04/24 07:47:04;;;;;;;1.15;0.80;;;23.10;65.20;;;;;;4025514;29;20156;-61
2022/04/24 07:49:06;;;;;;;1.15;0.70;;;23.10;65.20;;;;;;4034255;29;20060;-61
2022/04/24 07:51:08;;;;;;;0.82;0.50;;;23.10;65.20;;;;;;4037329;29;20125;-61
2022/04/24 07:53:11;;;;;;;1.55;0.70;;;23.10;65.30;;;;;;4039942;29;20146;-60
2022/04/24 07:55:17;;;;;;;1.23;0.70;;;23.10;65.40;;;;;;4018560;29;20106;-60
2022/04/24 07:57:19;;;;;;;1.15;0.77;;;23.10;65.40;;;;;;4016351;29;20061;-61
2022/04/24 07:59:21;;;;;;;4.07;0.90;;;23.00;65.30;;;;;;4036424;29;20178;-60
2022/04/24 08:01:23;;;;;;;1.98;0.80;;;23.10;65.40;;;;;;4041070;29;20063;-60
2022/04/24 08:03:25;;;;;;;1.05;0.68;;;23.00;66.00;;;;;;4017273;29;20119;-60
2022/04/24 08:05:29;;;;;;;1.38;0.70;;;23.00;65.50;;;;;;4032903;29;20551;-60
2022/04/24 08:07:31;;;;;;;1.98;0.70;;;23.00;65.40;;;;;;4042603;29;20820;-61
2022/04/24 08:09:33;;;;;;;1.20;0.60;;;23.00;65.50;;;;;;4019648;29;20060;-60
2022/04/24 08:11:35;;;;;;;1.33;0.70;;;23.00;65.50;;;;;;4019139;29;20071;-60
2022/04/24 08:13:37;;;;;;;0.88;0.60;;;23.00;65.50;;;;;;4038531;29;20048;-62
2022/04/24 08:15:40;;;;;;;1.15;0.70;;;23.00;65.60;;;;;;4028941;29;21969;-61
2022/04/24 08:17:43;;;;;;;1.17;0.50;;;23.00;65.60;;;;;;4019102;29;20056;-62
2022/04/24 08:19:45;;;;;;;0.75;0.63;;;23.00;65.70;;;;;;4036203;29;20277;-62
2022/04/24 08:21:47;;;;;;;0.75;0.45;;;22.90;65.70;;;;;;4041464;29;20133;-62
2022/04/24 08:23:49;;;;;;;2.70;0.70;;;22.90;65.60;;;;;;4002471;29;20148;-61
2022/04/24 08:25:51;;;;;;;0.75;0.50;;;22.90;65.70;;;;;;4018537;29;20088;-63
2022/04/24 08:27:55;;;;;;;0.50;0.45;;;22.90;65.70;;;;;;4025801;29;20437;-63
2022/04/24 08:29:58;;;;;;;0.50;0.43;;;22.90;65.90;;;;;;4025946;29;20196;-63
2022/04/24 08:32:00;;;;;;;1.60;0.75;;;22.90;65.80;;;;;;4038343;29;20141;-62
2022/04/24 08:34:02;;;;;;;0.85;0.50;;;22.90;65.90;;;;;;4024709;29;20479;-62
2022/04/24 08:36:05;;;;;;;0.55;0.55;;;22.90;65.90;;;;;;4027499;29;20091;-62
2022/04/24 08:38:08;;;;;;;1.17;0.60;;;22.90;66.00;;;;;;4038300;29;20060;-62
2022/04/24 08:40:12;;;;;;;0.90;0.60;;;22.90;66.00;;;;;;4023918;29;20255;-62
2022/04/24 08:42:18;;;;;;;0.77;0.40;;;22.90;66.00;;;;;;4028903;29;20068;-62
2022/04/24 08:44:20;;;;;;;0.88;0.50;;;22.80;66.10;;;;;;4047563;29;21134;-62
2022/04/24 08:46:24;;;;;;;0.80;0.60;;;22.80;66.10;;;;;;4007799;29;20671;-62
2022/04/24 08:48:25;;;;;;;;;;;22.80;66.10;;;;;;4021798;29;20071;-63
2022/04/24 08:50:30;;;;;;;0.60;0.43;;;22.80;66.20;;;;;;4048439;29;19946;-63
2022/04/24 08:52:32;;;;;;;0.80;0.60;;;22.80;66.20;;;;;;4021308;29;20055;-62
2022/04/24 08:54:35;;;;;;;1.53;0.70;;;22.80;66.20;;;;;;4016216;29;20067;-62
2022/04/24 08:56:37;;;;;;;1.23;0.70;;;22.80;66.30;;;;;;4024510;29;20060;-62
2022/04/24 08:58:40;;;;;;;0.45;0.43;;;22.80;66.30;;;;;;4041768;29;20059;-62
2022/04/24 09:00:43;;;;;;;0.87;0.60;;;22.80;66.40;;;;;;4032546;29;20058;-62
2022/04/24 09:02:46;;;;;;;0.95;0.65;;;22.80;66.40;;;;;;4013029;29;21111;-60
2022/04/24 09:04:49;;;;;;;0.98;0.60;;;22.70;66.50;;;;;;4040763;29;20296;-60
2022/04/24 09:07:02;;;;;;;0.50;0.50;;;22.70;66.50;;;;;;4022337;29;20074;-61
2022/04/24 09:09:05;;;;;;;;;;;22.70;66.50;;;;;;4019397;29;20064;-62
2022/04/24 09:11:09;;;;;;;0.83;0.40;;;22.70;66.50;;;;;;4015569;29;20112;-61
2022/04/24 09:13:11;;;;;;;0.55;0.40;;;22.70;66.60;;;;;;4011963;29;20084;-61
2022/04/24 09:15:18;;;;;;;0.53;0.50;;;22.70;66.60;;;;;;4024009;29;20088;-61
2022/04/24 09:17:26;;;;;;;0.82;0.60;;;22.70;66.60;;;;;;4020491;29;21541;-61
2022/04/24 09:19:28;;;;;;;0.90;0.60;;;22.70;66.70;;;;;;4016153;29;21503;-61
2022/04/24 09:21:31;;;;;;;1.35;0.55;;;22.70;66.70;;;;;;4019302;29;20509;-61
2022/04/24 09:23:42;;;;;;;1.63;0.77;;;22.60;66.70;;;;;;4039989;29;20051;-61
2022/04/24 09:25:45;;;;;;;0.45;0.45;;;22.70;66.90;;;;;;4042453;29;20537;-60
2022/04/24 09:27:55;;;;;;;0.73;0.50;;;22.60;66.90;;;;;;4015895;29;20063;-61
2022/04/24 09:30:19;;;;;;;0.65;0.50;;;22.60;67.00;;;;;;4014294;29;20060;-61
2022/04/24 09:32:21;;;;;;;;;;;22.60;67.00;;;;;;4041462;29;20056;-61
2022/04/24 09:34:33;;;;;;;1.47;0.77;;;22.60;67.00;;;;;;4005177;29;19998;-62
2022/04/24 09:36:37;;;;;;;1.13;0.52;;;22.60;67.00;;;;;;4022116;29;20064;-62
2022/04/24 09:38:49;;;;;;;1.33;0.60;;;22.60;67.00;;;;;;4017216;29;20090;-62
2022/04/24 09:40:51;;;;;;;0.88;0.60;;;22.60;67.10;;;;;;4030226;29;21228;-62
2022/04/24 09:42:54;;;;;;;0.95;0.35;;;22.60;67.20;;;;;;4018580;29;20051;-62
2022/04/24 09:44:57;;;;;;;0.82;0.57;;;22.60;67.90;;;;;;4024563;29;20048;-61
2022/04/24 09:47:02;;;;;;;0.30;0.30;;;22.60;67.20;;;;;;4019405;29;20267;-61
2022/04/24 09:49:08;;;;;;;1.27;0.57;;;22.60;67.30;;;;;;4024746;29;20309;-62
2022/04/24 09:51:13;;;;;;;0.85;0.60;;;22.50;67.30;;;;;;4049757;29;20051;-62
2022/04/24 09:53:21;;;;;;;1.30;0.60;;;22.50;67.40;;;;;;4029206;29;20461;-62
2022/04/24 09:55:27;;;;;;;0.73;0.52;;;22.60;67.50;;;;;;4029561;29;20056;-61
2022/04/24 09:57:31;;;;;;;0.93;0.57;;;22.50;67.50;;;;;;4023778;29;20140;-62
2022/04/24 09:59:34;;;;;;;0.85;0.60;;;22.50;67.60;;;;;;4040005;29;20123;-62
2022/04/24 10:01:38;;;;;;;1.13;0.40;;;22.50;67.60;;;;;;4047699;29;20079;-62
2022/04/24 10:03:41;;;;;;;0.82;0.50;;;22.50;67.60;;;;;;4048074;29;20645;-61
2022/04/24 10:05:47;;;;;;;1.17;0.57;;;22.50;67.60;;;;;;4040951;29;20063;-62
2022/04/24 10:07:50;;;;;;;0.57;0.40;;;22.50;67.70;;;;;;4042592;29;20178;-62
2022/04/24 10:09:54;;;;;;;;;;;22.50;67.70;;;;;;4043125;29;20058;-62
2022/04/24 10:12:01;;;;;;;1.40;0.70;;;22.50;67.80;;;;;;4026711;29;19970;-61
2022/04/24 10:14:07;;;;;;;0.40;0.40;;;22.50;67.90;;;;;;4022778;29;20099;-60
2022/04/24 10:16:29;;;;;;;0.85;0.60;;;22.50;67.80;;;;;;4001709;29;20114;-61
2022/04/24 10:19:02;;;;;;;0.57;0.40;;;22.50;67.90;;;;;;4039319;29;20337;-62
2022/04/24 10:21:10;;;;;;;0.40;0.40;;;22.40;67.90;;;;;;4034117;29;20370;-61
2022/04/24 10:23:12;;;;;;;0.40;0.40;;;22.40;68.00;;;;;;4033484;29;20966;-62
2022/04/24 10:25:16;;;;;;;1.42;0.52;;;22.40;68.00;;;;;;4017126;29;20086;-62
2022/04/24 10:27:19;;;;;;;1.00;0.52;;;22.40;68.10;;;;;;4003742;29;20048;-61
2022/04/24 10:29:22;;;;;;;0.50;0.50;;;22.40;68.10;;;;;;4030312;29;20147;-61
2022/04/24 10:31:24;;;;;;;0.40;0.40;;;22.40;68.10;;;;;;4031052;29;20054;-62
2022/04/24 10:33:30;;;;;;;0.63;0.60;;;22.40;68.20;;;;;;4038826;29;20205;-62
2022/04/24 10:35:34;;;;;;;0.40;0.40;;;22.40;68.20;;;;;;4018052;29;20621;-61
2022/04/24 10:37:36;;;;;;;0.43;0.43;;;22.30;68.30;;;;;;4031747;29;20082;-61
2022/04/24 10:39:40;;;;;;;0.55;0.40;;;22.30;68.30;;;;;;4015729;29;20059;-61
2022/04/24 10:41:52;;;;;;;0.43;0.43;;;22.30;68.30;;;;;;4021410;29;21605;-62
2022/04/24 10:44:08;;;;;;;1.42;0.60;;;22.30;68.40;;;;;;4018244;29;20064;-62
2022/04/24 10:46:20;;;;;;;0.80;0.57;;;22.30;68.40;;;;;;4015690;29;20393;-62
2022/04/24 10:48:34;;;;;;;0.60;0.57;;;22.30;68.50;;;;;;4017782;29;20059;-62
2022/04/24 10:50:52;;;;;;;0.90;0.57;;;22.30;68.50;;;;;;4029861;29;21071;-61
2022/04/24 10:52:56;;;;;;;0.77;0.60;;;22.30;68.60;;;;;;4014424;29;20863;-62